RJTS(METAR)
07/27 16:00
METAR RJTS 270700Z 15002KT 9999 FEW030 SCT070 27/21 Q0998 RMK 2CU030
3AC070 A2949=
戻る
トップページへ戻る
IMOC Co,.Ltd.